Terminal Aerodrome Forecast
Issued by NWS Tuscon, AZ

Home | Current Version | Previous Version | Text Only | Print | Product List | Glossary On
Versions: 1 2 3 4 5 6 7 8 9 10 11 12 13
000
FTUS45 KTWC 251138
TAFTUS
TAF
KTUS 251138Z 2512/2612 14008KT P6SM SCT140 BKN200
     FM251700 28008KT P6SM FEW080 SCT150 SCT250
     FM252000 31012G18KT P6SM SCT080 SCT150
     FM252300 32012KT P6SM SCT080 BKN130
     FM260400 35007KT P6SM FEW080 SCT130 BKN250
     FM260900 15006KT P6SM SCT130 BKN250=

USA.gov is the U.S. government's official web portal to all federal, state and local government web resources and services.